createdAt,value
2018-03-20T00:00:07.376Z,5.37
2018-03-20T00:02:36.226Z,5.63
2018-03-20T00:05:05.862Z,5.60
2018-03-20T00:07:34.790Z,5.97
2018-03-20T00:10:03.638Z,5.47
2018-03-20T00:12:32.547Z,5.40
2018-03-20T00:15:01.416Z,5.60
2018-03-20T00:17:30.269Z,6.00
2018-03-20T00:19:59.129Z,5.83
2018-03-20T00:22:28.012Z,5.37
2018-03-20T00:24:56.855Z,5.23
2018-03-20T00:27:25.688Z,5.47
2018-03-20T00:29:54.577Z,6.40
2018-03-20T00:32:23.413Z,5.60
2018-03-20T00:34:52.248Z,5.70
2018-03-20T00:37:21.120Z,5.77
2018-03-20T00:39:49.967Z,6.07
2018-03-20T00:42:18.849Z,6.10
2018-03-20T00:44:47.736Z,5.67
2018-03-20T00:47:16.572Z,6.03
2018-03-20T00:49:45.446Z,6.20
2018-03-20T00:52:14.313Z,5.73
2018-03-20T00:54:43.202Z,5.93
2018-03-20T00:57:17.890Z,5.43
2018-03-20T00:59:46.735Z,6.23
2018-03-20T01:02:15.583Z,6.13
2018-03-20T01:04:44.502Z,6.03
2018-03-20T01:07:14.298Z,6.10
2018-03-20T01:09:43.132Z,6.10
2018-03-20T01:12:12.004Z,6.23
2018-03-20T01:14:40.840Z,6.43
2018-03-20T01:17:09.675Z,5.87
2018-03-20T01:19:38.599Z,6.27
2018-03-20T01:22:07.447Z,7.10
2018-03-20T01:24:36.290Z,6.27
2018-03-20T01:27:05.185Z,6.57
2018-03-20T01:29:34.028Z,6.60
2018-03-20T01:32:03.346Z,6.20
2018-03-20T01:34:32.416Z,6.20
2018-03-20T01:37:01.292Z,6.53
2018-03-20T01:39:31.320Z,5.77
2018-03-20T01:42:00.204Z,7.00
2018-03-20T01:44:29.068Z,7.43
2018-03-20T01:46:57.902Z,6.10
2018-03-20T01:49:26.772Z,6.33
2018-03-20T01:51:55.616Z,6.80
2018-03-20T01:54:24.456Z,6.10
2018-03-20T01:56:54.184Z,6.40
2018-03-20T01:59:23.036Z,5.73
2018-03-20T02:01:51.882Z,6.30
2018-03-20T02:04:20.788Z,5.80
2018-03-20T02:06:51.100Z,6.50
2018-03-20T02:09:20.536Z,6.20
2018-03-20T02:11:50.354Z,6.33
2018-03-20T02:14:19.233Z,6.07
2018-03-20T02:16:48.108Z,5.93
2018-03-20T02:19:17.634Z,6.03
2018-03-20T02:21:46.497Z,5.70
2018-03-20T02:24:15.347Z,5.40
2018-03-20T02:26:44.761Z,5.90
2018-03-20T02:29:14.586Z,6.47
2018-03-20T02:31:43.423Z,6.17
2018-03-20T02:34:12.290Z,6.00
2018-03-20T02:36:41.137Z,6.20
2018-03-20T02:39:09.969Z,5.70
2018-03-20T02:41:38.822Z,5.47
2018-03-20T02:44:07.708Z,6.17
2018-03-20T02:46:36.586Z,6.30
2018-03-20T02:49:05.449Z,5.77
2018-03-20T02:51:34.297Z,6.10
2018-03-20T02:54:03.146Z,5.50
2018-03-20T02:56:32.061Z,5.97
2018-03-20T02:59:00.907Z,5.60
2018-03-20T03:01:31.618Z,6.67
2018-03-20T03:04:00.483Z,5.77
2018-03-20T03:06:29.803Z,5.60
2018-03-20T03:08:58.649Z,5.93
2018-03-20T03:11:28.165Z,5.87
2018-03-20T03:13:57.024Z,5.53
2018-03-20T03:16:25.863Z,5.67
2018-03-20T03:18:54.763Z,6.60
2018-03-20T03:21:23.609Z,6.60
2018-03-20T03:23:53.111Z,6.33
2018-03-20T03:26:21.978Z,6.13
2018-03-20T03:28:51.128Z,6.77
2018-03-20T03:31:19.980Z,6.37
2018-03-20T03:33:49.670Z,6.07
2018-03-20T03:36:18.817Z,6.07
2018-03-20T03:38:47.652Z,6.30
2018-03-20T03:41:16.551Z,5.67
2018-03-20T03:43:45.412Z,5.90
2018-03-20T03:46:14.267Z,6.33
2018-03-20T03:48:43.154Z,5.97
2018-03-20T03:51:12.000Z,5.93
2018-03-20T03:53:40.835Z,6.07
2018-03-20T03:56:10.771Z,5.80
2018-03-20T03:58:39.607Z,6.60
2018-03-20T04:01:09.050Z,6.87
2018-03-20T04:03:37.906Z,6.30
2018-03-20T04:06:06.739Z,6.13
2018-03-20T04:08:35.606Z,6.13
2018-03-20T04:11:04.528Z,7.07
2018-03-20T04:13:33.339Z,7.00
2018-03-20T04:16:02.219Z,6.67
2018-03-20T04:18:31.103Z,6.60
2018-03-20T04:20:59.947Z,6.17
2018-03-20T04:23:29.450Z,6.73
2018-03-20T04:25:58.307Z,7.03
2018-03-20T04:28:27.161Z,7.27
2018-03-20T04:30:56.040Z,7.17
2018-03-20T04:33:24.893Z,6.97
2018-03-20T04:35:53.732Z,7.63
2018-03-20T04:38:22.628Z,7.23
2018-03-20T04:40:52.292Z,7.57
2018-03-20T04:43:21.142Z,7.33
2018-03-20T04:45:50.013Z,7.10
2018-03-20T04:48:18.864Z,7.23
2018-03-20T04:50:47.715Z,7.10
2018-03-20T04:53:16.612Z,6.90
2018-03-20T04:55:45.469Z,7.30
2018-03-20T04:58:14.317Z,8.00
2018-03-20T05:00:43.176Z,7.13
2018-03-20T05:03:12.011Z,8.50
2018-03-20T05:05:40.869Z,7.93
2018-03-20T05:08:11.183Z,8.10
2018-03-20T05:10:40.039Z,7.67
2018-03-20T05:13:09.637Z,8.33
2018-03-20T05:15:39.536Z,8.43
2018-03-20T05:18:08.671Z,8.20
2018-03-20T05:20:53.405Z,8.70
2018-03-20T05:23:38.160Z,8.60
2018-03-20T05:26:07.039Z,8.13
2018-03-20T05:28:35.946Z,8.33
2018-03-20T05:31:04.791Z,9.03
2018-03-20T05:33:33.659Z,7.90
2018-03-20T05:36:02.544Z,9.07
2018-03-20T05:38:32.189Z,8.87
2018-03-20T05:41:01.659Z,8.67
2018-03-20T05:43:30.546Z,8.47
2018-03-20T05:45:59.399Z,8.80
2018-03-20T05:48:31.612Z,9.33
2018-03-20T05:51:06.118Z,8.67
2018-03-20T05:53:35.025Z,8.20
2018-03-20T05:56:03.868Z,8.63
2018-03-20T05:58:32.753Z,9.27
2018-03-20T06:01:01.676Z,8.50
2018-03-20T06:03:30.535Z,10.10
2018-03-20T06:05:59.404Z,8.77
2018-03-20T06:08:29.625Z,8.73
2018-03-20T06:10:59.144Z,8.83
2018-03-20T06:13:29.035Z,8.57
2018-03-20T06:15:57.899Z,8.53
2018-03-20T06:18:26.735Z,8.77
2018-03-20T06:20:55.609Z,9.93
2018-03-20T06:23:25.328Z,9.23
2018-03-20T06:25:54.171Z,9.50
2018-03-20T06:28:23.118Z,8.57
2018-03-20T06:30:52.486Z,9.20
2018-03-20T06:33:22.291Z,9.27
2018-03-20T06:35:51.163Z,8.37
2018-03-20T06:38:19.999Z,8.90
2018-03-20T06:40:49.855Z,8.77
2018-03-20T06:43:18.783Z,9.37
2018-03-20T06:45:47.661Z,7.73
2018-03-20T06:48:16.503Z,8.27
2018-03-20T06:50:45.385Z,8.43
2018-03-20T06:53:14.223Z,8.10
2018-03-20T06:55:44.739Z,7.57
2018-03-20T06:58:13.642Z,7.27
2018-03-20T07:00:42.514Z,6.80
2018-03-20T07:03:11.401Z,6.00
2018-03-20T07:05:40.334Z,5.40
2018-03-20T07:08:09.173Z,5.30
2018-03-20T07:10:38.035Z,5.03
2018-03-20T07:13:06.889Z,5.40
2018-03-20T07:15:35.773Z,5.27
2018-03-20T07:18:04.927Z,5.43
2018-03-20T07:20:33.934Z,5.13
2018-03-20T07:23:02.802Z,5.57
2018-03-20T07:25:31.709Z,5.20
2018-03-20T07:28:00.570Z,4.20
2018-03-20T07:30:30.349Z,4.30
2018-03-20T07:32:59.211Z,3.77
2018-03-20T07:35:28.389Z,3.57
2018-03-20T07:37:57.232Z,3.77
2018-03-20T07:40:26.120Z,3.97
2018-03-20T07:42:55.002Z,3.13
2018-03-20T07:45:23.849Z,3.83
2018-03-20T07:47:53.709Z,4.27
2018-03-20T07:50:22.624Z,4.00
2018-03-20T07:52:51.468Z,3.57
2018-03-20T07:55:20.357Z,3.33
2018-03-20T07:57:50.293Z,3.93
2018-03-20T08:00:19.139Z,3.47
2018-03-20T08:02:48.016Z,3.67
2018-03-20T08:05:17.611Z,3.87
2018-03-20T08:07:46.472Z,3.70
2018-03-20T08:10:15.339Z,3.37
2018-03-20T08:12:45.052Z,4.30
2018-03-20T08:15:13.896Z,4.07
2018-03-20T08:17:42.785Z,3.50
2018-03-20T08:20:11.877Z,4.23
2018-03-20T08:22:40.730Z,4.47
2018-03-20T08:25:10.294Z,3.50
2018-03-20T08:27:39.153Z,3.97
2018-03-20T08:30:08.212Z,3.70
2018-03-20T08:32:37.142Z,3.60
2018-03-20T08:35:06.016Z,3.70
2018-03-20T08:37:34.855Z,3.83
2018-03-20T08:40:03.790Z,3.83
2018-03-20T08:42:32.640Z,3.50
2018-03-20T08:45:01.494Z,3.80
2018-03-20T08:47:31.778Z,4.10
2018-03-20T08:50:00.670Z,3.70
2018-03-20T08:52:30.100Z,3.43
2018-03-20T08:54:58.975Z,3.13
2018-03-20T08:57:27.840Z,3.70
2018-03-20T08:59:56.724Z,3.20
2018-03-20T09:02:25.695Z,3.30
2018-03-20T09:04:54.532Z,3.30
2018-03-20T09:07:23.946Z,3.50
2018-03-20T09:09:54.553Z,3.30
2018-03-20T09:12:23.447Z,3.07
2018-03-20T09:14:52.270Z,3.53
2018-03-20T09:17:21.162Z,3.33
2018-03-20T09:19:49.986Z,3.20
2018-03-20T09:22:18.840Z,2.73
2018-03-20T09:24:47.699Z,3.40
2018-03-20T09:27:17.278Z,2.57
2018-03-20T09:29:46.131Z,3.00
2018-03-20T09:32:15.002Z,2.80
2018-03-20T09:34:43.844Z,2.60
2018-03-20T09:37:13.020Z,2.60
2018-03-20T09:39:41.888Z,2.97
2018-03-20T09:42:11.740Z,2.47
2018-03-20T09:44:40.588Z,2.10
2018-03-20T09:47:10.088Z,2.57
2018-03-20T09:49:39.872Z,2.20
2018-03-20T09:52:09.615Z,2.53
2018-03-20T09:54:38.488Z,2.47
2018-03-20T09:57:07.330Z,2.40
2018-03-20T09:59:36.192Z,2.23
2018-03-20T10:02:05.076Z,2.17
2018-03-20T10:04:33.916Z,2.20
2018-03-20T10:07:02.802Z,2.30
2018-03-20T10:09:31.709Z,2.20
2018-03-20T10:12:00.546Z,2.30
2018-03-20T10:14:29.903Z,2.30
2018-03-20T10:16:59.852Z,2.20
2018-03-20T10:19:29.085Z,2.10
2018-03-20T10:21:57.897Z,2.20
2018-03-20T10:24:26.760Z,2.33
2018-03-20T10:26:56.291Z,2.07
2018-03-20T10:29:25.155Z,1.83
2018-03-20T10:31:54.033Z,2.10
2018-03-20T10:34:22.878Z,2.10
2018-03-20T10:36:52.212Z,2.27
2018-03-20T10:39:21.064Z,2.20
2018-03-20T10:41:49.908Z,2.13
2018-03-20T10:44:18.796Z,1.70
2018-03-20T10:46:47.648Z,1.87
2018-03-20T10:49:16.504Z,2.03
2018-03-20T10:51:45.344Z,2.23
2018-03-20T10:54:14.208Z,2.33
2018-03-20T10:56:43.048Z,1.80
2018-03-20T10:59:11.904Z,2.20
2018-03-20T11:01:45.708Z,2.03
2018-03-20T11:04:14.540Z,2.10
2018-03-20T11:06:43.374Z,2.57
2018-03-20T11:09:12.602Z,2.00
2018-03-20T11:11:42.270Z,1.93
2018-03-20T11:14:11.108Z,1.70
2018-03-20T11:16:39.974Z,1.50
2018-03-20T11:19:09.829Z,1.67
2018-03-20T11:21:38.660Z,2.20
2018-03-20T11:24:08.818Z,1.70
2018-03-20T11:26:37.656Z,2.10
2018-03-20T11:29:06.634Z,1.90
2018-03-20T11:31:35.534Z,2.00
2018-03-20T11:34:04.386Z,1.77
2018-03-20T11:36:34.708Z,1.47
2018-03-20T11:39:03.592Z,1.90
2018-03-20T11:41:32.432Z,1.90
2018-03-20T11:44:01.269Z,1.60
2018-03-20T11:46:31.632Z,1.50
2018-03-20T11:49:00.516Z,1.63
2018-03-20T11:51:29.877Z,2.03
2018-03-20T11:53:58.812Z,1.87
2018-03-20T11:56:27.700Z,1.60
2018-03-20T11:58:56.596Z,1.80
2018-03-20T12:01:25.458Z,1.80
2018-03-20T12:03:54.316Z,1.63
2018-03-20T12:06:23.167Z,1.83
2018-03-20T12:08:52.122Z,2.00
2018-03-20T12:11:20.934Z,1.60
2018-03-20T12:13:49.772Z,1.90
2018-03-20T12:16:18.649Z,1.83
2018-03-20T12:18:47.526Z,1.90
2018-03-20T12:21:16.413Z,1.50
2018-03-20T12:23:45.276Z,1.77
2018-03-20T12:26:14.098Z,1.77
2018-03-20T12:28:42.943Z,2.00
2018-03-20T12:31:11.804Z,1.90
2018-03-20T12:33:40.984Z,1.93
2018-03-20T12:36:09.837Z,1.93
2018-03-20T12:38:38.703Z,1.67
2018-03-20T12:41:07.557Z,1.87
2018-03-20T12:43:36.386Z,1.90
2018-03-20T12:46:05.310Z,2.20
2018-03-20T12:48:34.138Z,2.47
2018-03-20T12:51:02.982Z,2.20
2018-03-20T12:53:31.861Z,1.83
2018-03-20T12:56:01.381Z,2.10
2018-03-20T12:58:30.234Z,1.60
2018-03-20T13:00:59.088Z,1.93
2018-03-20T13:03:27.934Z,1.93
2018-03-20T13:05:56.778Z,2.07
2018-03-20T13:08:25.642Z,2.00
2018-03-20T13:10:54.532Z,1.90
2018-03-20T13:13:23.378Z,1.60
2018-03-20T13:15:52.236Z,1.80
2018-03-20T13:18:21.074Z,2.03
2018-03-20T13:20:49.908Z,1.73
2018-03-20T13:23:18.871Z,1.77
2018-03-20T13:25:48.092Z,2.23
2018-03-20T13:28:17.035Z,1.60
2018-03-20T13:30:45.908Z,1.90
2018-03-20T13:33:14.738Z,1.70
2018-03-20T13:35:43.576Z,1.43
2018-03-20T13:38:12.452Z,1.67
2018-03-20T13:40:41.956Z,1.37
2018-03-20T13:43:10.826Z,1.60
2018-03-20T13:45:39.698Z,1.70
2018-03-20T13:48:09.608Z,1.50
2018-03-20T13:50:38.447Z,1.30
2018-03-20T13:53:07.335Z,1.33
2018-03-20T13:55:36.178Z,1.83
2018-03-20T13:58:05.038Z,1.50
2018-03-20T14:00:33.922Z,1.20
2018-03-20T14:03:03.786Z,1.60
2018-03-20T14:05:32.621Z,1.40
2018-03-20T14:08:01.493Z,1.30
2018-03-20T14:10:30.350Z,1.37
2018-03-20T14:12:59.188Z,1.20
2018-03-20T14:15:28.282Z,1.60
2018-03-20T14:17:57.104Z,1.10
2018-03-20T14:20:25.956Z,1.30
2018-03-20T14:22:54.821Z,1.40
2018-03-20T14:25:23.659Z,1.20
2018-03-20T14:27:53.114Z,1.43
2018-03-20T14:30:21.990Z,1.30
2018-03-20T14:32:51.824Z,1.33
2018-03-20T14:35:20.690Z,1.67
2018-03-20T14:37:49.560Z,1.53
2018-03-20T14:40:18.724Z,1.10
2018-03-20T14:42:47.614Z,1.20
2018-03-20T14:45:16.508Z,1.10
2018-03-20T14:47:45.341Z,1.37
2018-03-20T14:50:14.204Z,1.20
2018-03-20T14:52:43.055Z,1.47
2018-03-20T14:55:11.922Z,1.27
2018-03-20T14:57:40.778Z,1.30
2018-03-20T15:00:10.601Z,1.40
2018-03-20T15:02:39.424Z,1.10
2018-03-20T15:05:08.300Z,1.37
2018-03-20T15:07:37.237Z,0.97
2018-03-20T15:10:06.029Z,1.00
2018-03-20T15:12:34.882Z,1.10
2018-03-20T15:15:03.728Z,0.97
2018-03-20T15:17:32.562Z,1.10
2018-03-20T15:20:01.455Z,1.40
2018-03-20T15:22:30.311Z,1.30
2018-03-20T15:24:59.194Z,0.90
2018-03-20T15:27:28.301Z,1.33
2018-03-20T15:29:57.153Z,1.40
2018-03-20T15:32:26.020Z,1.10
2018-03-20T15:34:54.872Z,0.97
2018-03-20T15:37:23.715Z,1.50
2018-03-20T15:39:52.605Z,1.20
2018-03-20T15:42:22.466Z,1.27
2018-03-20T15:44:51.408Z,1.00
2018-03-20T15:47:20.968Z,0.83
2018-03-20T15:49:50.657Z,1.07
2018-03-20T15:52:19.525Z,1.20
2018-03-20T15:54:48.666Z,1.50
2018-03-20T15:57:17.521Z,1.50
2018-03-20T15:59:46.361Z,1.40
2018-03-20T16:02:15.222Z,1.37
2018-03-20T16:04:44.105Z,1.33
2018-03-20T16:07:13.053Z,1.53
2018-03-20T16:09:41.928Z,1.10
2018-03-20T16:12:11.721Z,1.17
2018-03-20T16:14:40.563Z,1.27
2018-03-20T16:17:09.469Z,1.40
2018-03-20T16:19:38.323Z,1.57
2018-03-20T16:22:08.879Z,1.30
2018-03-20T16:24:37.726Z,1.43
2018-03-20T16:27:07.345Z,1.03
2018-03-20T16:29:36.814Z,1.10
2018-03-20T16:32:07.583Z,1.23
2018-03-20T16:34:37.710Z,1.10
2018-03-20T16:37:06.576Z,1.20
2018-03-20T16:39:37.448Z,1.47
2018-03-20T16:42:07.147Z,1.40
2018-03-20T16:44:36.709Z,1.07
2018-03-20T16:49:39.700Z,1.10
2018-03-20T16:52:11.388Z,1.53
2018-03-20T16:54:40.915Z,1.40
2018-03-20T16:57:10.097Z,1.00
2018-03-20T16:59:38.999Z,1.60
2018-03-20T17:04:42.227Z,1.50
2018-03-20T17:07:11.727Z,0.97
2018-03-20T17:09:49.483Z,1.40
2018-03-20T17:12:21.099Z,1.20
2018-03-20T17:14:49.990Z,1.37
2018-03-20T17:17:18.894Z,1.40
2018-03-20T17:19:48.704Z,1.27
2018-03-20T17:22:17.587Z,1.23
2018-03-20T17:24:47.514Z,1.17
2018-03-20T17:27:17.217Z,1.07
2018-03-20T17:29:46.075Z,1.00
2018-03-20T17:32:14.944Z,1.20
2018-03-20T17:34:43.816Z,1.30
2018-03-20T17:37:12.678Z,1.40
2018-03-20T17:39:41.522Z,1.50
2018-03-20T17:42:13.743Z,1.50
2018-03-20T17:44:42.588Z,1.43
2018-03-20T17:47:12.474Z,1.80
2018-03-20T17:49:41.365Z,1.80
2018-03-20T17:52:10.706Z,1.77
2018-03-20T17:54:39.564Z,2.03
2018-03-20T17:57:09.020Z,4.57
2018-03-20T17:59:38.952Z,6.17
2018-03-20T18:02:09.923Z,3.00
2018-03-20T18:04:38.827Z,2.70
2018-03-20T18:07:10.168Z,2.00
2018-03-20T18:09:39.014Z,1.70
2018-03-20T18:12:08.400Z,1.80
2018-03-20T18:14:37.250Z,1.70
2018-03-20T18:17:06.117Z,1.83
2018-03-20T18:19:36.902Z,1.90
2018-03-20T18:22:05.780Z,2.00
2018-03-20T18:27:25.262Z,2.30
2018-03-20T18:29:54.124Z,2.40
2018-03-20T18:32:22.972Z,2.20
2018-03-20T18:34:51.902Z,1.90
2018-03-20T18:37:20.752Z,2.40
2018-03-20T18:39:51.014Z,1.90
2018-03-20T18:42:19.906Z,1.77
2018-03-20T18:44:48.755Z,2.77
2018-03-20T18:47:17.599Z,2.17
2018-03-20T18:49:46.476Z,1.73
2018-03-20T18:52:15.361Z,1.83
2018-03-20T18:54:44.193Z,1.80
2018-03-20T18:57:13.034Z,1.97
2018-03-20T18:59:41.943Z,2.03
2018-03-20T19:02:10.793Z,1.80
2018-03-20T19:04:39.678Z,1.93
2018-03-20T19:07:10.698Z,1.90
2018-03-20T19:09:39.539Z,2.20
2018-03-20T19:12:09.404Z,2.20
2018-03-20T19:14:38.361Z,1.80
2018-03-20T19:17:07.144Z,2.53
2018-03-20T19:19:36.061Z,1.87
2018-03-20T19:22:04.960Z,1.87
2018-03-20T19:24:34.910Z,2.10
2018-03-20T19:27:04.169Z,2.20
2018-03-20T19:29:33.100Z,1.83
2018-03-20T19:32:02.005Z,1.87
2018-03-20T19:34:31.738Z,2.47
2018-03-20T19:37:00.605Z,2.43
2018-03-20T19:39:30.342Z,2.00
2018-03-20T19:41:59.248Z,2.10
2018-03-20T19:44:28.452Z,2.20
2018-03-20T19:46:57.298Z,1.97
2018-03-20T19:49:26.256Z,1.97
2018-03-20T19:51:55.168Z,2.23
2018-03-20T19:54:24.052Z,2.37
2018-03-20T19:56:52.955Z,2.60
2018-03-20T19:59:21.817Z,2.83
2018-03-20T20:01:50.663Z,2.40
2018-03-20T20:04:19.516Z,2.83
2018-03-20T20:06:48.429Z,2.57
2018-03-20T20:09:17.334Z,2.10
2018-03-20T20:11:46.248Z,2.17
2018-03-20T20:14:15.144Z,2.17
2018-03-20T20:16:44.001Z,2.40
2018-03-20T20:19:12.924Z,2.70
2018-03-20T20:21:41.826Z,2.20
2018-03-20T20:24:10.673Z,3.10
2018-03-20T20:26:39.590Z,2.47
2018-03-20T20:29:08.726Z,2.33
2018-03-20T20:31:37.584Z,2.50
2018-03-20T20:34:06.576Z,2.23
2018-03-20T20:36:35.462Z,2.10
2018-03-20T20:39:04.616Z,2.30
2018-03-20T20:41:34.144Z,2.43
2018-03-20T20:44:03.008Z,2.23
2018-03-20T20:46:31.871Z,2.73
2018-03-20T20:49:00.775Z,2.00
2018-03-20T20:51:30.564Z,16.20
2018-03-20T20:53:59.444Z,22.23
2018-03-20T20:56:28.324Z,5.07
2018-03-20T20:58:57.164Z,3.63
2018-03-20T21:01:26.010Z,2.60
2018-03-20T21:03:54.867Z,2.63
2018-03-20T21:06:23.712Z,2.33
2018-03-20T21:08:52.797Z,2.60
2018-03-20T21:11:21.699Z,2.77
2018-03-20T21:13:51.192Z,2.60
2018-03-20T21:16:20.303Z,2.67
2018-03-20T21:18:49.168Z,2.40
2018-03-20T21:21:18.032Z,3.10
2018-03-20T21:23:46.942Z,2.50
2018-03-20T21:26:16.091Z,2.67
2018-03-20T21:28:44.949Z,2.50
2018-03-20T21:31:14.584Z,2.80
2018-03-20T21:33:43.442Z,2.97
2018-03-20T21:36:12.344Z,3.97
2018-03-20T21:38:41.802Z,4.00
2018-03-20T21:41:11.035Z,3.30
2018-03-20T21:43:40.274Z,3.00
2018-03-20T21:46:09.151Z,2.80
2018-03-20T21:48:37.996Z,3.50
2018-03-20T21:51:06.830Z,2.70
2018-03-20T21:53:35.737Z,2.87
2018-03-20T21:56:05.456Z,3.17
2018-03-20T21:58:34.305Z,3.23
2018-03-20T22:01:04.148Z,3.13
2018-03-20T22:03:33.038Z,3.07
2018-03-20T22:06:01.888Z,3.00
2018-03-20T22:08:33.499Z,3.67
2018-03-20T22:11:02.940Z,3.13
2018-03-20T22:13:32.282Z,3.30
2018-03-20T22:16:06.543Z,3.47
2018-03-20T22:18:35.679Z,3.43
2018-03-20T22:21:04.648Z,3.60
2018-03-20T22:23:34.276Z,3.47
2018-03-20T22:26:03.116Z,2.70
2018-03-20T22:28:35.506Z,3.67
2018-03-20T22:33:50.329Z,4.03
2018-03-20T22:39:35.540Z,3.73
2018-03-20T22:42:04.392Z,4.07
2018-03-20T22:44:34.636Z,3.30
2018-03-20T22:47:03.520Z,3.77
2018-03-20T22:49:32.355Z,4.30
2018-03-20T22:52:01.238Z,4.07
2018-03-20T22:54:30.110Z,4.10
2018-03-20T22:56:58.986Z,5.23
2018-03-20T22:59:27.845Z,5.10
2018-03-20T23:01:56.714Z,6.63
2018-03-20T23:04:25.569Z,9.57
2018-03-20T23:06:54.404Z,6.37
2018-03-20T23:09:23.257Z,7.30
2018-03-20T23:11:52.835Z,4.93
2018-03-20T23:14:21.679Z,5.63
2018-03-20T23:16:51.128Z,5.30
2018-03-20T23:19:19.960Z,6.07
2018-03-20T23:21:49.511Z,4.77
2018-03-20T23:24:18.375Z,5.57
2018-03-20T23:26:47.385Z,4.63
2018-03-20T23:29:16.222Z,5.77
2018-03-20T23:31:45.105Z,4.97
2018-03-20T23:34:14.666Z,5.37
2018-03-20T23:36:43.491Z,5.33
2018-03-20T23:39:15.133Z,5.13
2018-03-20T23:41:43.994Z,6.37
2018-03-20T23:44:13.824Z,4.90
2018-03-20T23:46:42.673Z,5.33
2018-03-20T23:49:11.519Z,5.70
2018-03-20T23:51:40.393Z,6.27
2018-03-20T23:54:09.269Z,5.93
2018-03-20T23:56:38.113Z,5.43
2018-03-20T23:59:07.023Z,6.27
